MASCOMA R @ W CANAAN: From 08/03/2022 17:00 to 08/18/2022 03:00

Date STAGE [FT] FLOW [CFS] PRECIPITATION INCREMENT [IN] AIR TEMPERATURE [DEGF]
08/17/2022 22:00 0.41 5.4 0.00 60.5
08/17/2022 21:00 0.41 5.4 0.00 60.6
08/17/2022 20:00 0.41 5.4 0.00 60.9
08/17/2022 19:00 0.41 5.4 0.00 61.5
08/17/2022 18:00 0.41 5.4 0.00 62.5
08/17/2022 17:00 0.41 5.4 0.00 63.0
08/17/2022 16:00 0.40 5.2 0.00 63.5
08/17/2022 15:00 0.40 5.2 0.00 63.9
08/17/2022 14:00 0.40 5.2 0.00 65.1
08/17/2022 13:00 0.40 5.2 0.00 66.1
08/17/2022 12:00 0.40 5.2 0.00 66.9
08/17/2022 11:00 0.40 5.2 0.00 68.0
08/17/2022 10:00 0.40 5.2 0.00 68.3
08/17/2022 09:00 0.40 5.2 0.00 71.7
08/17/2022 08:00 0.41 5.4 0.00 65.0
08/17/2022 07:00 0.41 5.4 0.00 64.6
08/17/2022 06:00 0.41 5.4 0.00 64.1
08/17/2022 05:00 0.41 5.4 0.00 61.8
08/17/2022 04:00 0.42 5.7 0.00 58.9
08/17/2022 03:00 0.42 5.7 0.00 58.4
08/17/2022 02:00 0.43 6.0 0.00 58.0
08/17/2022 01:00 0.43 6.0 0.00 58.4
08/17/2022 00:00 0.44 6.2 0.00 58.8
08/16/2022 23:00 0.44 6.2 0.00 59.1
08/16/2022 22:00 0.45 6.5 0.00 59.1
08/16/2022 21:00 0.45 6.5 0.00 58.9
08/16/2022 20:00 0.46 6.8 0.00 59.0
08/16/2022 19:00 0.46 6.8 0.01 59.7
08/16/2022 18:00 0.47 7.1 0.00 60.7
08/16/2022 17:00 0.47 7.1 0.00 62.0
08/16/2022 16:00 0.47 7.1 0.00 63.5
08/16/2022 15:00 0.47 7.1 0.00 64.5
08/16/2022 14:00 0.48 7.4 0.00 66.2
08/16/2022 13:00 0.48 7.4 0.00 69.5
08/16/2022 12:00 0.50 8.0 0.15 66.7
08/16/2022 11:00 0.48 7.4 0.00 79.5
08/16/2022 10:00 0.48 7.4 0.00 79.5
08/16/2022 09:00 0.47 7.1 0.00 76.2
08/16/2022 08:00 0.46 6.8 0.00 72.6
08/16/2022 07:00 0.45 6.5 0.00 68.9
08/16/2022 06:00 0.44 6.2 0.00 66.1
08/16/2022 05:00 0.43 6.0 0.00 59.3
08/16/2022 04:00 0.42 5.7 0.00 53.0
08/16/2022 03:00 0.43 6.0 0.00 49.5
08/16/2022 02:00 0.43 6.0 0.00 48.9
08/16/2022 01:00 0.43 6.0 0.00 49.5
08/16/2022 00:00 0.43 6.0 0.00 50.6
08/15/2022 23:00 0.43 6.0 0.00 51.7
08/15/2022 22:00 0.43 6.0 0.00 53.0
08/15/2022 21:00 0.44 6.2 0.00 54.7
08/15/2022 20:00 0.44 6.2 0.00 56.6
08/15/2022 19:00 0.44 6.2 0.00 58.3
08/15/2022 18:00 0.44 6.2 0.00 63.0
08/15/2022 17:00 0.44 6.2 0.00 64.0
08/15/2022 16:00 0.44 6.2 0.00 66.0
08/15/2022 15:00 0.44 6.2 0.00 69.3
08/15/2022 14:00 0.44 6.2 0.00 73.3
08/15/2022 13:00 0.44 6.2 0.00 81.2
08/15/2022 12:00 0.44 6.2 0.00 80.3
08/15/2022 11:00 0.44 6.2 0.00 76.3
08/15/2022 10:00 0.44 6.2 0.00 80.3
08/15/2022 09:00 0.44 6.2 0.00 78.9
08/15/2022 08:00 0.44 6.2 0.00 72.5
08/15/2022 07:00 0.44 6.2 0.00 70.6
08/15/2022 06:00 0.44 6.2 0.00 63.6
08/15/2022 05:00 0.44 6.2 0.00 57.1
08/15/2022 04:00 0.45 6.5 0.00 51.0
08/15/2022 03:00 0.46 6.8 0.00 47.3
08/15/2022 02:00 0.47 7.1 0.00 46.5
08/15/2022 01:00 0.47 7.1 0.00 47.2
08/15/2022 00:00 0.48 7.4 0.00 47.8
08/14/2022 23:00 0.48 7.4 0.00 49.1
08/14/2022 22:00 0.48 7.4 0.00 50.4
08/14/2022 21:00 0.48 7.4 0.00 51.6
08/14/2022 20:00 0.48 7.4 0.00 53.3
08/14/2022 19:00 0.48 7.4 0.00 54.8
08/14/2022 18:00 0.48 7.4 0.00 56.9
08/14/2022 17:00 0.48 7.4 0.00 59.4
08/14/2022 16:00 0.48 7.4 0.00 62.7
08/14/2022 15:00 0.47 7.1 0.00 66.1
08/14/2022 14:00 0.47 7.1 0.00 71.7
08/14/2022 13:00 0.47 7.1 0.00 80.7
08/14/2022 12:00 0.47 7.1 0.00 73.2
08/14/2022 11:00 0.47 7.1 0.00 76.8
08/14/2022 10:00 0.47 7.1 0.00 76.9
08/14/2022 09:00 0.47 7.1 0.00 74.8
08/14/2022 08:00 0.47 7.1 0.00 72.5
08/14/2022 07:00 0.47 7.1 0.00 69.0
08/14/2022 06:00 0.47 7.1 0.00 63.2
08/14/2022 05:00 0.47 7.1 0.00 57.1
08/14/2022 04:00 0.48 7.4 0.00 48.3
08/14/2022 03:00 0.48 7.4 0.00 47.7
08/14/2022 02:00 0.48 7.4 0.00 46.9
08/14/2022 01:00 0.49 7.7 0.00 47.6
08/14/2022 00:00 0.49 7.7 0.00 49.0
08/13/2022 23:00 0.50 8.0 0.00 51.0
08/13/2022 22:00 0.50 8.0 0.00 51.4
08/13/2022 21:00 0.50 8.0 0.00 53.1
08/13/2022 20:00 0.50 8.0 0.00 54.7
08/13/2022 19:00 0.50 8.0 0.00 56.1
08/13/2022 18:00 0.50 8.0 0.00 59.5
08/13/2022 17:00 0.50 8.0 0.00 59.9
08/13/2022 16:00 0.50 8.0 0.00 62.9
08/13/2022 15:00 0.49 7.7 0.00 66.0
08/13/2022 14:00 0.49 7.7 0.00 68.2
08/13/2022 13:00 0.49 7.7 0.00 68.7
08/13/2022 12:00 0.49 7.7 0.00 65.9
08/13/2022 11:00 0.49 7.7 0.00 70.6
08/13/2022 10:00 0.49 7.7 0.00 69.2
08/13/2022 09:00 0.49 7.7 0.00 69.6
08/13/2022 08:00 0.49 7.7 0.00 69.4
08/13/2022 07:00 0.49 7.7 0.00 65.4
08/13/2022 06:00 0.49 7.7 0.00 62.3
08/13/2022 05:00 0.50 8.0 0.00 56.1
08/13/2022 04:00 0.50 8.0 0.00 48.4
08/13/2022 03:00 0.51 8.3 0.00 45.7
08/13/2022 02:00 0.52 8.6 0.00 46.0
08/13/2022 01:00 0.52 8.6 0.00 47.0
08/13/2022 00:00 0.52 8.6 0.00 47.7
08/12/2022 23:00 0.53 9.0 0.00 48.7
08/12/2022 22:00 0.53 9.0 0.00 50.0
08/12/2022 21:00 0.53 9.0 0.00 50.6
08/12/2022 20:00 0.54 9.3 0.00 52.3
08/12/2022 19:00 0.54 9.3 0.00 53.0
08/12/2022 18:00 0.54 9.3 0.00 56.0
08/12/2022 17:00 0.54 9.3 0.00 58.1
08/12/2022 16:00 0.54 9.3 0.00 60.8
08/12/2022 15:00 0.54 9.3 0.00 64.0
08/12/2022 14:00 0.54 9.3 0.00 66.0
08/12/2022 13:00 0.54 9.3 0.00 70.6
08/12/2022 12:00 0.54 9.3 0.00 69.7
08/12/2022 11:00 0.54 9.3 0.00 68.5
08/12/2022 10:00 0.54 9.3 0.00 65.2
08/12/2022 09:00 0.54 9.3 0.00 65.1
08/12/2022 08:00 0.54 9.3 0.00 64.8
08/12/2022 07:00 0.54 9.3 0.00 61.9
08/12/2022 06:00 0.54 9.3 0.00 58.3
08/12/2022 05:00 0.54 9.3 0.00 57.5
08/12/2022 04:00 0.55 9.7 0.00 56.1
08/12/2022 03:00 0.55 9.7 0.02 54.5
08/12/2022 02:00 0.56 10.0 0.00 54.5
08/12/2022 01:00 0.56 10.0 0.00 55.8
08/12/2022 00:00 0.56 10.0 0.00 56.6
08/11/2022 23:00 0.57 10.4 0.00 57.3
08/11/2022 22:00 0.57 10.4 0.00 57.9
08/11/2022 21:00 0.57 10.4 0.00 59.1
08/11/2022 20:00 0.58 10.7 0.00 60.0
08/11/2022 19:00 0.58 10.7 0.00 62.6
08/11/2022 18:00 0.58 10.7 0.01 62.9
08/11/2022 17:00 0.59 11.1 0.01 64.3
08/11/2022 16:00 0.59 11.1 0.06 64.9
08/11/2022 15:00 0.59 11.1 0.00 70.7
08/11/2022 14:00 0.59 11.1 0.00 75.6
08/11/2022 13:00 0.59 11.1 0.00 82.7
08/11/2022 12:00 0.59 11.1 0.00 81.8
08/11/2022 11:00 0.59 11.1 0.00 80.4
08/11/2022 10:00 0.59 11.1 0.00 78.6
08/11/2022 09:00 0.59 11.1 0.00 74.2
08/11/2022 08:00 0.59 11.1 0.00 73.4
08/11/2022 07:00 0.59 11.1 0.00 71.7
08/11/2022 06:00 0.59 11.1 0.00 67.8
08/11/2022 05:00 0.60 11.5 0.00 64.3
08/11/2022 04:00 0.60 11.5 0.00 60.2
08/11/2022 03:00 0.61 11.9 0.00 57.8
08/11/2022 02:00 0.61 11.9 0.00 57.0
08/11/2022 01:00 0.62 12.3 0.00 57.3
08/11/2022 00:00 0.62 12.3 0.00 57.5
08/10/2022 23:00 0.63 12.7 0.00 58.0
08/10/2022 22:00 0.63 12.7 0.00 58.3
08/10/2022 21:00 0.64 13.1 0.00 58.9
08/10/2022 20:00 0.65 13.5 0.00 59.3
08/10/2022 19:00 0.65 13.5 0.00 59.5
08/10/2022 18:00 0.66 13.9 0.00 60.5
08/10/2022 17:00 0.67 14.4 0.00 61.4
08/10/2022 16:00 0.67 14.4 0.00 64.0
08/10/2022 15:00 0.68 14.8 0.00 66.8
08/10/2022 14:00 0.68 14.8 0.00 70.2
08/10/2022 13:00 0.67 14.4 0.00 72.5
08/10/2022 12:00 0.68 14.8 0.00 72.9
08/10/2022 11:00 0.68 14.8 0.00 71.5
08/10/2022 10:00 0.69 15.2 0.00 72.5
08/10/2022 09:00 0.69 15.2 0.00 70.3
08/10/2022 08:00 0.69 15.2 0.00 68.8
08/10/2022 07:00 0.70 15.7 0.00 68.6
08/10/2022 06:00 0.70 15.7 0.00 67.7
08/10/2022 05:00 0.70 15.7 0.00 65.5
08/10/2022 04:00 0.71 16.2 0.00 63.8
08/10/2022 03:00 0.71 16.2 0.00 62.5
08/10/2022 02:00 0.72 16.6 0.00 62.1
08/10/2022 01:00 0.72 16.6 0.00 62.1
08/10/2022 00:00 0.73 17.1 0.00 62.5
08/09/2022 23:00 0.73 17.1 0.00 62.7
08/09/2022 22:00 0.74 17.6 0.00 63.9
08/09/2022 21:00 0.74 17.6 0.00 64.2
08/09/2022 20:00 0.75 18.1 0.00 64.8
08/09/2022 19:00 0.75 18.1 0.00 66.0
08/09/2022 18:00 0.75 18.1 0.00 66.5
08/09/2022 17:00 0.75 18.1 0.00 70.7
08/09/2022 16:00 0.75 18.1 0.00 71.1
08/09/2022 15:00 0.75 18.1 0.00 74.5
08/09/2022 14:00 0.75 18.1 0.00 77.2
08/09/2022 13:00 0.75 18.1 0.00 84.1
08/09/2022 12:00 0.74 17.6 0.00 85.0
08/09/2022 11:00 0.73 17.1 0.00 79.7
08/09/2022 10:00 0.71 16.2 0.00 79.0
08/09/2022 09:00 0.70 15.7 0.00 78.5
08/09/2022 08:00 0.67 14.4 0.00 75.3
08/09/2022 07:00 0.67 14.4 0.00 75.6
08/09/2022 06:00 0.66 13.9 0.00 75.3
08/09/2022 05:00 0.65 13.5 0.00 73.1
08/09/2022 04:00 0.63 12.7 0.00 73.5
08/09/2022 03:00 0.62 12.3 0.01 71.9
08/09/2022 02:00 0.61 11.9 0.00 71.5
08/09/2022 01:00 0.60 11.5 0.00 71.6
08/09/2022 00:00 0.59 11.1 0.01 71.7
08/08/2022 23:00 0.59 11.1 0.00 72.1
08/08/2022 22:00 0.58 10.7 0.01 72.4
08/08/2022 21:00 0.58 10.7 0.01 72.8
08/08/2022 20:00 0.57 10.4 0.00 72.9
08/08/2022 19:00 0.56 10.0 0.01 73.2
08/08/2022 18:00 0.57 10.4 0.20 73.1
08/08/2022 17:00 0.54 9.3 0.00 73.0
08/08/2022 16:00 0.54 9.3 0.03 73.5
08/08/2022 15:00 0.57 10.4 0.44 75.6
08/08/2022 14:00 0.51 8.3 0.00 84.3
08/08/2022 13:00 0.51 8.3 0.00 87.8
08/08/2022 12:00 0.51 8.3 0.00 92.5
08/08/2022 11:00 0.51 8.3 0.00 93.3
08/08/2022 10:00 0.51 8.3 0.00 90.6
08/08/2022 09:00 0.51 8.3 0.00 86.3
08/08/2022 08:00 0.51 8.3 0.00 86.1
08/08/2022 07:00 0.51 8.3 0.00 83.0
08/08/2022 06:00 0.52 8.6 0.00 80.7
08/08/2022 05:00 0.52 8.6 0.00 77.5
08/08/2022 04:00 0.52 8.6 0.00 71.8
08/08/2022 03:00 0.53 9.0 0.00 68.7
08/08/2022 02:00 0.53 9.0 0.00 67.3
08/08/2022 01:00 0.53 9.0 0.00 67.7
08/08/2022 00:00 0.53 9.0 0.00 68.6
08/07/2022 23:00 0.54 9.3 0.00 69.1
08/07/2022 22:00 0.54 9.3 0.00 69.9
08/07/2022 21:00 0.55 9.7 0.00 70.9
08/07/2022 20:00 0.55 9.7 0.00 72.1
08/07/2022 19:00 0.55 9.7 0.00 73.2
08/07/2022 18:00 0.55 9.7 0.00 74.8
08/07/2022 17:00 0.56 10.0 0.00 75.7
08/07/2022 16:00 0.56 10.0 0.00 78.1
08/07/2022 15:00 0.56 10.0 0.00 80.6
08/07/2022 14:00 0.56 10.0 0.00 83.9
08/07/2022 13:00 0.56 10.0 0.00 88.0
08/07/2022 12:00 0.57 10.4 0.00 87.5
08/07/2022 11:00 0.57 10.4 0.00 87.9
08/07/2022 10:00 0.57 10.4 0.00 87.2
08/07/2022 09:00 0.57 10.4 0.00 84.3
08/07/2022 08:00 0.57 10.4 0.00 81.1
08/07/2022 07:00 0.57 10.4 0.00 80.8
08/07/2022 06:00 0.58 10.7 0.00 78.2
08/07/2022 05:00 0.58 10.7 0.00 73.9
08/07/2022 04:00 0.59 11.1 0.00 70.3
08/07/2022 03:00 0.59 11.1 0.00 67.2
08/07/2022 02:00 0.60 11.5 0.00 67.1
08/07/2022 01:00 0.60 11.5 0.00 67.7
08/07/2022 00:00 0.61 11.9 0.00 68.4
08/06/2022 23:00 0.61 11.9 0.00 69.2
08/06/2022 22:00 0.62 12.3 0.00 70.0
08/06/2022 21:00 0.63 12.7 0.00 70.7
08/06/2022 20:00 0.64 13.1 0.00 72.4
08/06/2022 19:00 0.64 13.1 0.00 72.7
08/06/2022 18:00 0.65 13.5 0.00 74.1
08/06/2022 17:00 0.66 13.9 0.00 75.3
08/06/2022 16:00 0.66 13.9 0.00 77.3
08/06/2022 15:00 0.67 14.4 0.00 80.1
08/06/2022 14:00 0.67 14.4 0.00 82.9
08/06/2022 13:00 0.68 14.8 0.00 86.5
08/06/2022 12:00 0.68 14.8 0.00 87.2
08/06/2022 11:00 0.69 15.2 0.00 83.6
08/06/2022 10:00 0.69 15.2 0.00 86.5
08/06/2022 09:00 0.70 15.7 0.00 85.5
08/06/2022 08:00 0.71 16.2 0.00 83.0
08/06/2022 07:00 0.71 16.2 0.00 81.3
08/06/2022 06:00 0.71 16.2 0.00 77.0
08/06/2022 05:00 0.72 16.6 0.00 71.3
08/06/2022 04:00 0.73 17.1 0.00 66.4
08/06/2022 03:00 0.74 17.6 0.00 66.1
08/06/2022 02:00 0.76 18.5 0.00 65.1
08/06/2022 01:00 0.79 20.1 0.00 66.1
08/06/2022 00:00 0.79 20.1 0.00 66.2
08/05/2022 23:00 0.80 20.6 0.00 66.2
08/05/2022 22:00 0.81 21.1 0.00 67.8
08/05/2022 21:00 0.82 21.7 0.00 68.0
08/05/2022 20:00 0.83 22.3 0.00 69.7
08/05/2022 19:00 0.82 21.7 0.00 70.0
08/05/2022 18:00 0.73 17.1 0.00 72.6
08/05/2022 17:00 0.72 16.6 0.00 72.9
08/05/2022 16:00 0.68 14.8 0.00 75.7
08/05/2022 15:00 0.67 14.4 0.00 78.2
08/05/2022 14:00 0.67 14.4 0.00 80.8
08/05/2022 13:00 0.66 13.9 0.00 86.5
08/05/2022 12:00 0.62 12.3 0.00 81.5
08/05/2022 11:00 0.62 12.3 0.00 83.7
08/05/2022 10:00 0.61 11.9 0.00 83.0
08/05/2022 09:00 0.57 10.4 0.00 81.4
08/05/2022 08:00 0.52 8.6 0.00 76.0
08/05/2022 07:00 0.47 7.1 0.00 74.2
08/05/2022 06:00 0.45 6.5 0.00 73.3
08/05/2022 05:00 0.44 6.2 0.00 70.8
08/05/2022 04:00 0.44 6.2 0.01 68.5
08/05/2022 03:00 0.44 6.2 0.00 67.3
08/05/2022 02:00 0.44 6.2 0.00 66.6
08/05/2022 01:00 0.44 6.2 0.00 67.0
08/05/2022 00:00 0.44 6.2 0.00 67.2
08/04/2022 23:00 0.44 6.2 0.00 67.5
08/04/2022 22:00 0.44 6.2 0.00 67.9
08/04/2022 21:00 0.44 6.2 0.00 67.9
08/04/2022 20:00 0.45 6.5 0.01 68.5
08/04/2022 19:00 0.45 6.5 0.00 69.1
08/04/2022 18:00 0.45 6.5 0.00 69.3
08/04/2022 17:00 0.45 6.5 0.03 69.7
08/04/2022 16:00 0.46 6.8 0.17 70.2
08/04/2022 15:00 0.43 6.0 0.00 75.9
08/04/2022 14:00 0.43 6.0 0.00 85.6
08/04/2022 13:00 0.43 6.0 0.00 93.2
08/04/2022 12:00 0.43 6.0 0.00 92.5
08/04/2022 11:00 0.43 6.0 0.00 91.0
08/04/2022 10:00 0.43 6.0 0.00 90.1
08/04/2022 09:00 0.43 6.0 0.00 87.3
08/04/2022 08:00 0.43 6.0 0.00 81.6
08/04/2022 07:00 0.44 6.2 0.00 80.0
08/04/2022 06:00 0.44 6.2 0.00 74.2
08/04/2022 05:00 0.44 6.2 0.00 68.2
08/04/2022 04:00 0.45 6.5 0.00 61.9
08/04/2022 03:00 0.45 6.5 0.00 58.4
08/04/2022 02:00 0.45 6.5 0.00 57.8
08/04/2022 01:00 0.46 6.8 0.00 58.0
08/04/2022 00:00 0.46 6.8 0.00 59.0
08/03/2022 23:00 0.46 6.8 0.00 60.0
08/03/2022 22:00 -- -- -- --
08/03/2022 21:00 -- -- -- --
08/03/2022 20:00 -- -- -- --
08/03/2022 19:00 -- -- -- --
08/03/2022 18:00 -- -- -- --
08/03/2022 17:00 -- -- -- --